createdAt,value
2022-09-03T00:00:38.047Z,21.40
2022-09-03T00:03:18.145Z,21.41
2022-09-03T00:05:47.723Z,21.45
2022-09-03T00:08:20.871Z,21.02
2022-09-03T00:10:55.213Z,21.42
2022-09-03T00:13:33.831Z,21.47
2022-09-03T00:16:01.221Z,21.36
2022-09-03T00:18:31.795Z,20.49
2022-09-03T00:21:08.411Z,20.83
2022-09-03T00:23:38.145Z,20.79
2022-09-03T00:26:13.011Z,21.01
2022-09-03T00:28:48.680Z,20.98
2022-09-03T00:31:20.176Z,21.38
2022-09-03T00:33:48.089Z,21.46
2022-09-03T00:36:31.926Z,21.33
2022-09-03T00:38:59.195Z,20.84
2022-09-03T00:41:47.456Z,20.69
2022-09-03T00:44:21.554Z,20.70
2022-09-03T00:47:20.314Z,20.82
2022-09-03T00:49:55.995Z,20.63
2022-09-03T00:52:32.983Z,20.58
2022-09-03T00:55:33.910Z,20.76
2022-09-03T00:58:22.176Z,21.03
2022-09-03T01:00:49.686Z,21.03
2022-09-03T01:03:24.243Z,18.28
2022-09-03T01:06:06.467Z,21.11
2022-09-03T01:08:49.205Z,20.80
2022-09-03T01:11:35.098Z,21.02
2022-09-03T01:14:16.606Z,20.93
2022-09-03T01:17:04.265Z,21.05
2022-09-03T01:20:04.282Z,20.96
2022-09-03T01:22:40.737Z,20.66
2022-09-03T01:25:35.414Z,20.80
2022-09-03T01:28:05.981Z,20.85
2022-09-03T01:30:38.258Z,20.70
2022-09-03T01:33:45.203Z,20.75
2022-09-03T01:36:27.180Z,20.84
2022-09-03T01:38:56.876Z,20.77
2022-09-03T01:42:11.706Z,20.80
2022-09-03T01:45:09.622Z,20.80
2022-09-03T01:48:11.070Z,20.73
2022-09-03T01:51:00.161Z,20.76
2022-09-03T01:53:41.578Z,20.73
2022-09-03T01:56:28.464Z,20.78
2022-09-03T01:59:04.061Z,20.42
2022-09-03T02:01:34.605Z,20.35
2022-09-03T02:04:02.059Z,20.27
2022-09-03T02:06:31.610Z,20.01
2022-09-03T02:08:58.513Z,20.12
2022-09-03T02:11:25.486Z,20.16
2022-09-03T02:13:55.031Z,19.34
2022-09-03T02:16:24.415Z,19.61
2022-09-03T02:19:06.436Z,19.71
2022-09-03T02:21:35.240Z,19.81
2022-09-03T02:24:03.832Z,19.91
2022-09-03T02:26:30.574Z,19.55
2022-09-03T02:28:57.800Z,19.73
2022-09-03T02:31:24.485Z,19.70
2022-09-03T02:33:51.522Z,19.55
2022-09-03T02:36:20.815Z,19.83
2022-09-03T02:38:47.606Z,19.94
2022-09-03T02:41:15.409Z,19.88
2022-09-03T02:44:07.298Z,20.09
2022-09-03T02:47:03.179Z,19.87
2022-09-03T02:49:30.789Z,19.95
2022-09-03T02:52:09.535Z,19.96
2022-09-03T02:54:39.755Z,19.97
2022-09-03T02:57:12.042Z,20.06
2022-09-03T02:59:39.774Z,19.91
2022-09-03T03:02:06.399Z,20.04
2022-09-03T03:04:33.428Z,20.10
2022-09-03T03:07:00.096Z,20.11
2022-09-03T03:09:26.739Z,19.99
2022-09-03T03:11:55.337Z,19.85
2022-09-03T03:14:22.594Z,19.95
2022-09-03T03:16:50.220Z,20.01
2022-09-03T03:19:16.905Z,20.05
2022-09-03T03:21:43.420Z,20.11
2022-09-03T03:24:10.124Z,19.95
2022-09-03T03:26:36.736Z,19.86
2022-09-03T03:29:06.632Z,20.00
2022-09-03T03:31:33.334Z,19.90
2022-09-03T03:34:02.369Z,19.78
2022-09-03T03:36:32.662Z,19.90
2022-09-03T03:39:00.193Z,19.87
2022-09-03T03:41:34.593Z,19.83
2022-09-03T03:44:04.155Z,19.45
2022-09-03T03:46:33.197Z,19.67
2022-09-03T03:48:59.938Z,19.58
2022-09-03T03:51:26.764Z,19.60
2022-09-03T03:53:55.662Z,19.42
2022-09-03T03:56:22.573Z,19.45
2022-09-03T03:58:49.246Z,19.48
2022-09-03T04:01:21.043Z,19.43
2022-09-03T04:03:48.049Z,19.19
2022-09-03T04:06:18.483Z,19.14
2022-09-03T04:08:46.826Z,19.24
2022-09-03T04:11:21.098Z,19.05
2022-09-03T04:13:48.266Z,18.97
2022-09-03T04:16:23.194Z,18.83
2022-09-03T04:18:50.053Z,18.75
2022-09-03T04:21:19.239Z,18.89
2022-09-03T04:23:47.470Z,18.83
2022-09-03T04:26:17.321Z,18.90
2022-09-03T04:28:45.202Z,18.93
2022-09-03T04:31:14.486Z,18.72
2022-09-03T04:33:41.679Z,18.65
2022-09-03T04:36:08.282Z,18.64
2022-09-03T04:38:36.268Z,18.52
2022-09-03T04:41:03.319Z,18.42
2022-09-03T04:43:30.157Z,18.55
2022-09-03T04:46:01.035Z,18.18
2022-09-03T04:48:28.769Z,18.58
2022-09-03T04:50:55.843Z,18.57
2022-09-03T04:53:23.023Z,18.59
2022-09-03T04:55:49.749Z,18.34
2022-09-03T04:58:16.450Z,18.44
2022-09-03T05:00:43.127Z,18.52
2022-09-03T05:03:09.653Z,18.37
2022-09-03T05:05:36.132Z,18.31
2022-09-03T05:08:03.163Z,18.30
2022-09-03T05:10:30.626Z,18.44
2022-09-03T05:13:01.670Z,18.49
2022-09-03T05:15:29.229Z,18.56
2022-09-03T05:17:57.053Z,18.64
2022-09-03T05:20:23.679Z,18.68
2022-09-03T05:22:50.210Z,18.36
2022-09-03T05:25:16.758Z,18.63
2022-09-03T05:27:43.545Z,18.58
2022-09-03T05:30:10.764Z,18.68
2022-09-03T05:32:37.301Z,18.66
2022-09-03T05:35:04.376Z,18.51
2022-09-03T05:37:30.881Z,18.63
2022-09-03T05:39:57.444Z,18.37
2022-09-03T05:42:23.978Z,18.51
2022-09-03T05:44:51.304Z,18.51
2022-09-03T05:47:17.991Z,18.45
2022-09-03T05:49:44.530Z,18.57
2022-09-03T05:52:11.027Z,18.05
2022-09-03T05:54:37.526Z,18.38
2022-09-03T05:57:04.644Z,18.35
2022-09-03T05:59:31.138Z,18.13
2022-09-03T06:02:00.351Z,18.39
2022-09-03T06:04:27.388Z,18.71
2022-09-03T06:06:53.954Z,18.81
2022-09-03T06:09:23.342Z,18.54
2022-09-03T06:11:50.772Z,18.60
2022-09-03T06:14:19.194Z,18.80
2022-09-03T06:16:49.627Z,18.76
2022-09-03T06:19:16.921Z,18.84
2022-09-03T06:21:44.807Z,19.09
2022-09-03T06:24:20.152Z,19.06
2022-09-03T06:26:47.278Z,18.71
2022-09-03T06:29:14.150Z,19.32
2022-09-03T06:31:40.922Z,19.12
2022-09-03T06:34:08.351Z,19.24
2022-09-03T06:36:34.991Z,19.39
2022-09-03T06:39:01.900Z,19.39
2022-09-03T06:41:35.235Z,19.14
2022-09-03T06:44:05.038Z,19.34
2022-09-03T06:46:36.102Z,19.28
2022-09-03T06:49:03.028Z,19.49
2022-09-03T06:51:31.256Z,19.13
2022-09-03T06:54:09.077Z,19.52
2022-09-03T06:56:40.231Z,19.81
2022-09-03T06:59:16.569Z,19.80
2022-09-03T07:01:45.434Z,19.88
2022-09-03T07:04:16.039Z,20.29
2022-09-03T07:06:43.205Z,20.32
2022-09-03T07:09:11.562Z,20.32
2022-09-03T07:11:40.196Z,20.22
2022-09-03T07:14:09.347Z,20.47
2022-09-03T07:16:37.283Z,20.43
2022-09-03T07:19:06.020Z,20.68
2022-09-03T07:21:36.730Z,20.42
2022-09-03T07:24:05.110Z,20.74
2022-09-03T07:26:34.310Z,20.84
2022-09-03T07:29:01.254Z,20.93
2022-09-03T07:31:33.442Z,20.83
2022-09-03T07:34:03.978Z,21.02
2022-09-03T07:36:38.790Z,21.14
2022-09-03T07:39:07.082Z,21.50
2022-09-03T07:41:33.617Z,21.43
2022-09-03T07:44:05.622Z,21.63
2022-09-03T07:46:34.342Z,21.71
2022-09-03T07:49:05.005Z,21.71
2022-09-03T07:51:35.642Z,22.52
2022-09-03T07:54:04.924Z,22.53
2022-09-03T07:56:31.567Z,22.53
2022-09-03T07:58:59.217Z,23.14
2022-09-03T08:01:28.519Z,23.34
2022-09-03T08:03:55.697Z,23.23
2022-09-03T08:06:24.162Z,23.31
2022-09-03T08:08:59.702Z,23.72
2022-09-03T08:11:31.387Z,23.79
2022-09-03T08:14:03.130Z,24.71
2022-09-03T08:16:31.466Z,24.85
2022-09-03T08:18:58.541Z,24.89
2022-09-03T08:21:26.607Z,25.14
2022-09-03T08:23:54.834Z,25.44
2022-09-03T08:26:22.283Z,25.38
2022-09-03T08:28:49.270Z,25.89
2022-09-03T08:31:21.157Z,26.45
2022-09-03T08:33:49.580Z,26.59
2022-09-03T08:36:16.100Z,26.94
2022-09-03T08:38:45.480Z,26.59
2022-09-03T08:41:20.808Z,27.23
2022-09-03T08:44:25.140Z,27.55
2022-09-03T08:46:56.020Z,27.01
2022-09-03T08:50:00.335Z,27.08
2022-09-03T08:52:26.846Z,26.53
2022-09-03T08:55:00.976Z,26.34
2022-09-03T08:57:28.814Z,26.51
2022-09-03T08:59:59.969Z,27.06
2022-09-03T09:02:53.733Z,27.27
2022-09-03T09:05:28.921Z,28.04
2022-09-03T09:08:21.800Z,28.61
2022-09-03T09:10:55.341Z,29.79
2022-09-03T09:13:33.892Z,30.36
2022-09-03T09:16:10.222Z,30.74
2022-09-03T09:18:49.502Z,30.17
2022-09-03T09:21:27.414Z,31.79
2022-09-03T09:23:57.427Z,30.87
2022-09-03T09:26:23.972Z,31.26
2022-09-03T09:29:03.737Z,30.40
2022-09-03T09:31:32.172Z,30.71
2022-09-03T09:34:07.100Z,33.56
2022-09-03T09:36:54.765Z,37.98
2022-09-03T09:39:22.234Z,40.18
2022-09-03T09:42:21.726Z,43.13
2022-09-03T09:44:48.270Z,46.73
2022-09-03T09:47:27.861Z,44.68
2022-09-03T09:49:57.860Z,44.02
2022-09-03T09:52:28.598Z,46.59
2022-09-03T09:55:09.373Z,51.21
2022-09-03T09:57:37.296Z,52.68
2022-09-03T10:00:13.362Z,50.44
2022-09-03T10:02:51.828Z,48.99
2022-09-03T10:05:37.810Z,49.72
2022-09-03T10:08:19.461Z,48.47
2022-09-03T10:10:51.993Z,48.17
2022-09-03T10:13:24.081Z,49.72
2022-09-03T10:15:56.649Z,48.68
2022-09-03T10:18:35.038Z,52.89
2022-09-03T10:21:07.610Z,55.34
2022-09-03T10:23:46.781Z,55.75
2022-09-03T10:26:15.085Z,52.87
2022-09-03T10:28:42.683Z,51.51
2022-09-03T10:31:39.696Z,53.01
2022-09-03T10:34:37.669Z,48.01
2022-09-03T10:37:27.194Z,51.36
2022-09-03T10:40:03.022Z,48.62
2022-09-03T10:42:55.303Z,47.39
2022-09-03T10:46:06.731Z,48.93
2022-09-03T10:48:50.609Z,42.56
2022-09-03T10:51:28.056Z,42.58
2022-09-03T10:54:14.930Z,46.41
2022-09-03T10:56:50.933Z,46.10
2022-09-03T10:59:39.908Z,41.84
2022-09-03T11:02:22.003Z,39.86
2022-09-03T11:05:03.682Z,38.69
2022-09-03T11:07:39.781Z,40.60
2022-09-03T11:10:14.058Z,42.41
2022-09-03T11:12:48.409Z,38.67
2022-09-03T11:15:30.810Z,40.26
2022-09-03T11:18:05.774Z,38.69
2022-09-03T11:20:32.947Z,35.65
2022-09-03T11:23:01.930Z,33.30
2022-09-03T11:25:44.316Z,35.01
2022-09-03T11:28:26.111Z,33.68
2022-09-03T11:31:04.657Z,34.00
2022-09-03T11:33:32.946Z,33.16
2022-09-03T11:36:01.698Z,32.51
2022-09-03T11:38:31.956Z,33.17
2022-09-03T11:41:01.347Z,33.23
2022-09-03T11:43:30.668Z,32.87
2022-09-03T11:46:14.052Z,32.19
2022-09-03T11:48:45.766Z,32.68
2022-09-03T11:51:30.455Z,31.76
2022-09-03T11:54:02.128Z,32.04
2022-09-03T11:56:30.307Z,29.86
2022-09-03T11:59:26.406Z,29.54
2022-09-03T12:02:11.231Z,31.44
2022-09-03T12:04:44.687Z,31.50
2022-09-03T12:07:14.162Z,31.84
2022-09-03T12:10:20.215Z,31.85
2022-09-03T12:13:11.525Z,32.25
2022-09-03T12:15:49.536Z,31.95
2022-09-03T12:18:22.722Z,31.26
2022-09-03T12:20:55.800Z,31.08
2022-09-03T12:23:30.718Z,31.83
2022-09-03T12:26:05.119Z,32.58
2022-09-03T12:28:35.746Z,31.69
2022-09-03T12:31:28.091Z,31.31
2022-09-03T12:34:00.249Z,30.45
2022-09-03T12:36:39.435Z,30.41
2022-09-03T12:39:15.570Z,29.84
2022-09-03T12:42:01.396Z,29.20
2022-09-03T12:44:34.955Z,29.20
2022-09-03T12:47:34.087Z,29.55
2022-09-03T12:50:07.646Z,29.89
2022-09-03T12:52:37.641Z,29.81
2022-09-03T12:55:08.446Z,29.43
2022-09-03T12:57:39.938Z,29.43
2022-09-03T13:00:09.238Z,29.05
2022-09-03T13:02:48.036Z,29.44
2022-09-03T13:05:17.594Z,30.00
2022-09-03T13:07:51.478Z,30.35
2022-09-03T13:10:30.329Z,30.64
2022-09-03T13:13:02.162Z,30.66
2022-09-03T13:15:30.863Z,31.65
2022-09-03T13:18:09.710Z,32.66
2022-09-03T13:21:27.311Z,32.72
2022-09-03T13:24:26.195Z,34.04
2022-09-03T13:27:01.707Z,33.90
2022-09-03T13:29:30.540Z,32.57
2022-09-03T13:32:06.235Z,32.59
2022-09-03T13:34:38.427Z,32.05
2022-09-03T13:37:25.589Z,31.91
2022-09-03T13:40:00.880Z,31.12
2022-09-03T13:42:31.131Z,31.77
2022-09-03T13:45:06.514Z,32.88
2022-09-03T13:48:11.300Z,31.84
2022-09-03T13:50:49.244Z,32.31
2022-09-03T13:53:36.978Z,31.48
2022-09-03T13:56:14.181Z,30.66
2022-09-03T13:58:54.082Z,30.87
2022-09-03T14:01:51.764Z,31.34
2022-09-03T14:04:23.190Z,31.71
2022-09-03T14:06:56.754Z,32.55
2022-09-03T14:09:56.446Z,33.00
2022-09-03T14:12:46.785Z,33.25
2022-09-03T14:15:29.628Z,33.35
2022-09-03T14:18:29.989Z,32.68
2022-09-03T14:21:46.121Z,32.57
2022-09-03T14:24:15.783Z,31.97
2022-09-03T14:26:59.593Z,32.01
2022-09-03T14:29:34.393Z,30.71
2022-09-03T14:32:28.962Z,29.77
2022-09-03T14:35:18.979Z,29.28
2022-09-03T14:38:10.438Z,29.14
2022-09-03T14:40:46.447Z,29.03
2022-09-03T14:43:37.475Z,29.53
2022-09-03T14:46:15.610Z,29.56
2022-09-03T14:49:02.430Z,29.45
2022-09-03T14:51:34.925Z,29.59
2022-09-03T14:54:41.253Z,29.45
2022-09-03T14:57:14.754Z,29.78
2022-09-03T15:00:04.971Z,29.38
2022-09-03T15:02:34.652Z,30.08
2022-09-03T15:05:28.553Z,29.78
2022-09-03T15:08:18.312Z,30.09
2022-09-03T15:10:47.709Z,31.20
2022-09-03T15:13:27.358Z,30.92
2022-09-03T15:16:21.516Z,30.49
2022-09-03T15:19:06.482Z,30.42
2022-09-03T15:21:51.403Z,30.08
2022-09-03T15:24:37.262Z,29.54
2022-09-03T15:27:16.591Z,29.95
2022-09-03T15:29:50.502Z,29.51
2022-09-03T15:32:40.006Z,30.20
2022-09-03T15:35:11.919Z,30.14
2022-09-03T15:37:53.635Z,29.27
2022-09-03T15:40:23.157Z,29.20
2022-09-03T15:42:53.019Z,28.74
2022-09-03T15:45:31.867Z,29.09
2022-09-03T15:48:27.558Z,28.86
2022-09-03T15:51:12.125Z,29.33
2022-09-03T15:53:46.016Z,29.19
2022-09-03T15:56:15.655Z,28.96
2022-09-03T15:58:51.920Z,29.76
2022-09-03T16:01:33.678Z,29.77
2022-09-03T16:04:20.744Z,29.46
2022-09-03T16:06:50.711Z,29.27
2022-09-03T16:09:35.985Z,29.43
2022-09-03T16:12:20.870Z,28.80
2022-09-03T16:14:58.138Z,27.96
2022-09-03T16:17:44.301Z,28.82
2022-09-03T16:20:26.453Z,28.29
2022-09-03T16:23:11.966Z,28.82
2022-09-03T16:25:50.575Z,28.58
2022-09-03T16:28:20.454Z,28.36
2022-09-03T16:30:57.464Z,28.44
2022-09-03T16:33:48.892Z,28.72
2022-09-03T16:36:46.445Z,28.44
2022-09-03T16:39:37.821Z,28.18
2022-09-03T16:42:14.270Z,28.27
2022-09-03T16:45:05.566Z,27.50
2022-09-03T16:48:12.112Z,28.05
2022-09-03T16:50:53.767Z,27.71
2022-09-03T16:53:29.220Z,28.00
2022-09-03T16:56:15.204Z,27.94
2022-09-03T16:58:54.023Z,28.58
2022-09-03T17:01:32.810Z,28.08
2022-09-03T17:04:27.309Z,27.25
2022-09-03T17:07:14.253Z,26.97
2022-09-03T17:09:46.768Z,27.24
2022-09-03T17:12:32.202Z,27.33
2022-09-03T17:15:14.073Z,26.90
2022-09-03T17:17:49.965Z,27.01
2022-09-03T17:20:49.405Z,26.89
2022-09-03T17:23:23.141Z,26.76
2022-09-03T17:26:01.780Z,25.80
2022-09-03T17:29:01.839Z,26.14
2022-09-03T17:31:40.740Z,26.22
2022-09-03T17:34:19.142Z,26.62
2022-09-03T17:37:04.627Z,26.02
2022-09-03T17:39:54.655Z,25.42
2022-09-03T17:42:34.070Z,25.65
2022-09-03T17:45:15.225Z,25.36
2022-09-03T17:48:06.502Z,25.37
2022-09-03T17:50:45.041Z,25.36
2022-09-03T17:53:47.240Z,25.49
2022-09-03T17:56:55.296Z,25.75
2022-09-03T17:59:46.145Z,25.32
2022-09-03T18:02:31.163Z,25.51
2022-09-03T18:05:24.296Z,25.49
2022-09-03T18:08:05.550Z,25.32
2022-09-03T18:10:41.976Z,25.06
2022-09-03T18:13:23.668Z,25.12
2022-09-03T18:16:06.775Z,24.92
2022-09-03T18:18:34.926Z,24.89
2022-09-03T18:21:30.649Z,24.71
2022-09-03T18:24:30.299Z,24.57
2022-09-03T18:27:18.198Z,24.28
2022-09-03T18:30:18.692Z,24.08
2022-09-03T18:33:03.846Z,24.05
2022-09-03T18:35:52.557Z,24.22
2022-09-03T18:38:44.337Z,24.40
2022-09-03T18:41:32.785Z,24.27
2022-09-03T18:44:34.355Z,24.43
2022-09-03T18:50:53.231Z,24.05
2022-09-03T18:53:41.090Z,24.57
2022-09-03T18:56:29.425Z,24.91
2022-09-03T18:59:30.628Z,24.39
2022-09-03T19:02:15.809Z,24.69
2022-09-03T19:05:07.707Z,24.27
2022-09-03T19:08:14.731Z,24.75
2022-09-03T19:11:07.336Z,24.64
2022-09-03T19:13:55.106Z,24.87
2022-09-03T19:16:45.201Z,24.82
2022-09-03T19:19:40.945Z,24.48
2022-09-03T19:22:28.615Z,24.48
2022-09-03T19:25:22.300Z,24.75
2022-09-03T19:28:11.167Z,24.87
2022-09-03T19:31:54.833Z,24.98
2022-09-03T19:34:49.705Z,24.91
2022-09-03T19:37:41.560Z,24.72
2022-09-03T19:40:51.102Z,24.27
2022-09-03T19:43:45.354Z,24.40
2022-09-03T19:46:56.069Z,23.97
2022-09-03T19:49:57.148Z,24.01
2022-09-03T19:53:06.145Z,23.99
2022-09-03T19:55:54.232Z,23.98
2022-09-03T19:58:43.895Z,23.90
2022-09-03T20:01:30.135Z,23.89
2022-09-03T20:04:18.614Z,23.87
2022-09-03T20:07:04.175Z,23.81
2022-09-03T20:09:53.650Z,23.89
2022-09-03T20:12:21.241Z,23.95
2022-09-03T20:14:47.771Z,23.79
2022-09-03T20:17:52.961Z,23.86
2022-09-03T20:20:31.646Z,23.98
2022-09-03T20:23:03.413Z,24.11
2022-09-03T20:25:45.050Z,24.03
2022-09-03T20:28:11.487Z,24.20
2022-09-03T20:30:48.287Z,24.26
2022-09-03T20:33:22.984Z,24.28
2022-09-03T20:36:24.675Z,24.10
2022-09-03T20:39:39.885Z,24.24
2022-09-03T20:43:04.649Z,24.03
2022-09-03T20:45:41.154Z,24.24
2022-09-03T20:48:26.461Z,24.24
2022-09-03T20:50:59.204Z,24.18
2022-09-03T20:53:54.909Z,24.14
2022-09-03T20:56:26.489Z,24.07
2022-09-03T20:59:23.771Z,24.13
2022-09-03T21:01:57.648Z,24.09
2022-09-03T21:04:57.203Z,23.76
2022-09-03T21:07:37.466Z,23.86
2022-09-03T21:10:25.282Z,23.84
2022-09-03T21:13:38.715Z,23.71
2022-09-03T21:16:15.230Z,23.63
2022-09-03T21:19:05.381Z,23.64
2022-09-03T21:21:50.121Z,23.62
2022-09-03T21:24:22.617Z,23.65
2022-09-03T21:27:01.976Z,23.44
2022-09-03T21:29:32.486Z,23.52
2022-09-03T21:32:04.274Z,23.60
2022-09-03T21:34:37.339Z,23.57
2022-09-03T21:37:04.727Z,23.58
2022-09-03T21:39:56.029Z,23.59
2022-09-03T21:42:37.405Z,23.49
2022-09-03T21:45:08.029Z,23.23
2022-09-03T21:47:40.944Z,23.32
2022-09-03T21:50:20.953Z,23.45
2022-09-03T21:52:47.617Z,23.41
2022-09-03T21:55:46.680Z,23.38
2022-09-03T21:58:32.734Z,23.40
2022-09-03T22:01:07.300Z,23.26
2022-09-03T22:03:34.102Z,23.31
2022-09-03T22:06:08.265Z,23.18
2022-09-03T22:08:45.314Z,23.16
2022-09-03T22:11:29.918Z,23.32
2022-09-03T22:14:05.331Z,23.20
2022-09-03T22:17:10.793Z,23.17
2022-09-03T22:19:38.864Z,22.92
2022-09-03T22:22:13.324Z,22.96
2022-09-03T22:24:50.983Z,22.95
2022-09-03T22:27:44.490Z,22.74
2022-09-03T22:30:20.244Z,22.64
2022-09-03T22:32:47.160Z,22.78
2022-09-03T22:35:31.670Z,22.78
2022-09-03T22:38:12.740Z,22.60
2022-09-03T22:40:52.169Z,21.99
2022-09-03T22:43:36.165Z,22.25
2022-09-03T22:46:14.771Z,22.34
2022-09-03T22:48:50.478Z,22.23
2022-09-03T22:51:21.653Z,22.08
2022-09-03T22:54:25.664Z,22.41
2022-09-03T22:56:52.847Z,22.38
2022-09-03T22:59:24.203Z,22.34
2022-09-03T23:01:56.887Z,22.35
2022-09-03T23:04:34.633Z,22.32
2022-09-03T23:07:12.204Z,22.34
2022-09-03T23:09:40.811Z,22.12
2022-09-03T23:12:11.090Z,22.26
2022-09-03T23:14:51.144Z,22.33
2022-09-03T23:20:14.270Z,22.35
2022-09-03T23:22:45.233Z,22.29
2022-09-03T23:25:22.123Z,22.41
2022-09-03T23:27:58.870Z,22.45
2022-09-03T23:30:25.453Z,22.44
2022-09-03T23:32:56.040Z,22.43
2022-09-03T23:35:35.187Z,22.00
2022-09-03T23:38:27.842Z,22.21
2022-09-03T23:40:57.188Z,22.27
2022-09-03T23:43:42.201Z,22.11
2022-09-03T23:46:23.508Z,22.19
2022-09-03T23:49:14.683Z,22.27
2022-09-03T23:52:16.910Z,22.25
2022-09-03T23:54:43.359Z,22.17
2022-09-03T23:57:13.001Z,22.14
